sensor_id;sensor_type;location;lat;lon;timestamp;P1;durP1;ratioP1;P2;durP2;ratioP2
45730;SDS011;31440;48.584;13.460;2023-03-22T00:02:00;10.02;;;7.22;;
45730;SDS011;31440;48.584;13.460;2023-03-22T00:05:05;14.85;;;6.80;;
45730;SDS011;31440;48.584;13.460;2023-03-22T00:08:10;12.13;;;7.53;;
45730;SDS011;31440;48.584;13.460;2023-03-22T00:11:17;8.52;;;6.07;;
45730;SDS011;31440;48.584;13.460;2023-03-22T00:14:23;12.35;;;6.72;;
45730;SDS011;31440;48.584;13.460;2023-03-22T00:17:27;10.45;;;7.80;;
45730;SDS011;31440;48.584;13.460;2023-03-22T00:20:33;9.68;;;6.65;;
45730;SDS011;31440;48.584;13.460;2023-03-22T00:23:41;9.00;;;6.28;;
45730;SDS011;31440;48.584;13.460;2023-03-22T00:26:47;11.05;;;6.57;;
45730;SDS011;31440;48.584;13.460;2023-03-22T00:29:51;9.32;;;6.22;;
45730;SDS011;31440;48.584;13.460;2023-03-22T00:32:56;9.52;;;5.63;;
45730;SDS011;31440;48.584;13.460;2023-03-22T00:36:02;8.90;;;6.00;;
45730;SDS011;31440;48.584;13.460;2023-03-22T00:39:09;11.73;;;6.70;;
45730;SDS011;31440;48.584;13.460;2023-03-22T00:42:13;10.30;;;6.20;;
45730;SDS011;31440;48.584;13.460;2023-03-22T00:45:18;9.90;;;7.32;;
45730;SDS011;31440;48.584;13.460;2023-03-22T00:48:23;10.23;;;7.38;;
45730;SDS011;31440;48.584;13.460;2023-03-22T00:51:28;11.00;;;6.72;;
45730;SDS011;31440;48.584;13.460;2023-03-22T00:54:32;11.35;;;7.65;;
45730;SDS011;31440;48.584;13.460;2023-03-22T00:57:37;9.73;;;6.65;;
45730;SDS011;31440;48.584;13.460;2023-03-22T01:00:42;9.63;;;7.25;;
45730;SDS011;31440;48.584;13.460;2023-03-22T01:03:48;12.40;;;6.93;;
45730;SDS011;31440;48.584;13.460;2023-03-22T01:06:54;13.63;;;7.72;;
45730;SDS011;31440;48.584;13.460;2023-03-22T01:10:03;10.93;;;7.45;;
45730;SDS011;31440;48.584;13.460;2023-03-22T01:13:09;10.20;;;7.45;;
45730;SDS011;31440;48.584;13.460;2023-03-22T01:16:15;9.63;;;7.03;;
45730;SDS011;31440;48.584;13.460;2023-03-22T01:19:21;8.82;;;6.22;;
45730;SDS011;31440;48.584;13.460;2023-03-22T01:22:30;11.68;;;6.45;;
45730;SDS011;31440;48.584;13.460;2023-03-22T01:25:35;8.18;;;6.22;;
45730;SDS011;31440;48.584;13.460;2023-03-22T01:28:40;9.65;;;6.68;;
45730;SDS011;31440;48.584;13.460;2023-03-22T01:31:44;8.57;;;5.93;;
45730;SDS011;31440;48.584;13.460;2023-03-22T01:34:49;11.45;;;7.32;;
45730;SDS011;31440;48.584;13.460;2023-03-22T01:37:56;12.73;;;6.05;;
45730;SDS011;31440;48.584;13.460;2023-03-22T01:41:01;9.13;;;6.57;;
45730;SDS011;31440;48.584;13.460;2023-03-22T01:47:16;12.57;;;6.28;;
45730;SDS011;31440;48.584;13.460;2023-03-22T01:50:21;10.55;;;5.82;;
45730;SDS011;31440;48.584;13.460;2023-03-22T01:53:27;8.93;;;6.15;;
45730;SDS011;31440;48.584;13.460;2023-03-22T01:56:36;10.43;;;6.18;;
45730;SDS011;31440;48.584;13.460;2023-03-22T01:59:46;11.85;;;6.93;;
45730;SDS011;31440;48.584;13.460;2023-03-22T02:03:18;7.78;;;6.10;;
45730;SDS011;31440;48.584;13.460;2023-03-22T02:06:28;11.93;;;6.97;;
45730;SDS011;31440;48.584;13.460;2023-03-22T02:09:43;9.80;;;6.18;;
45730;SDS011;31440;48.584;13.460;2023-03-22T02:16:56;8.27;;;5.75;;
45730;SDS011;31440;48.584;13.460;2023-03-22T02:23:38;7.43;;;5.50;;
45730;SDS011;31440;48.584;13.460;2023-03-22T02:26:57;8.40;;;5.93;;
45730;SDS011;31440;48.584;13.460;2023-03-22T02:33:56;8.32;;;5.28;;
45730;SDS011;31440;48.584;13.460;2023-03-22T02:40:30;9.45;;;5.97;;
45730;SDS011;31440;48.584;13.460;2023-03-22T02:47:20;9.10;;;6.43;;
45730;SDS011;31440;48.584;13.460;2023-03-22T02:50:31;12.32;;;6.65;;
45730;SDS011;31440;48.584;13.460;2023-03-22T02:53:52;8.82;;;6.50;;
45730;SDS011;31440;48.584;13.460;2023-03-22T02:57:03;10.38;;;6.80;;
45730;SDS011;31440;48.584;13.460;2023-03-22T03:00:13;9.45;;;6.10;;
45730;SDS011;31440;48.584;13.460;2023-03-22T03:03:21;8.75;;;5.82;;
45730;SDS011;31440;48.584;13.460;2023-03-22T03:06:33;10.65;;;5.85;;
45730;SDS011;31440;48.584;13.460;2023-03-22T03:09:43;8.48;;;5.57;;
45730;SDS011;31440;48.584;13.460;2023-03-22T03:12:48;10.93;;;5.82;;
45730;SDS011;31440;48.584;13.460;2023-03-22T03:15:55;8.30;;;6.38;;
45730;SDS011;31440;48.584;13.460;2023-03-22T03:19:05;11.07;;;5.68;;
45730;SDS011;31440;48.584;13.460;2023-03-22T03:25:54;9.98;;;6.25;;
45730;SDS011;31440;48.584;13.460;2023-03-22T03:29:14;8.77;;;5.60;;
45730;SDS011;31440;48.584;13.460;2023-03-22T03:32:25;12.48;;;6.25;;
45730;SDS011;31440;48.584;13.460;2023-03-22T03:35:46;10.48;;;6.68;;
45730;SDS011;31440;48.584;13.460;2023-03-22T03:38:55;8.23;;;6.10;;
45730;SDS011;31440;48.584;13.460;2023-03-22T03:42:02;7.57;;;5.50;;
45730;SDS011;31440;48.584;13.460;2023-03-22T03:45:09;11.18;;;6.80;;
45730;SDS011;31440;48.584;13.460;2023-03-22T03:48:17;8.35;;;5.70;;
45730;SDS011;31440;48.584;13.460;2023-03-22T03:51:25;7.85;;;5.53;;
45730;SDS011;31440;48.584;13.460;2023-03-22T03:54:31;8.77;;;6.15;;
45730;SDS011;31440;48.584;13.460;2023-03-22T03:57:36;8.55;;;5.90;;
45730;SDS011;31440;48.584;13.460;2023-03-22T04:00:41;8.90;;;5.30;;
45730;SDS011;31440;48.584;13.460;2023-03-22T04:03:52;11.25;;;6.45;;
45730;SDS011;31440;48.584;13.460;2023-03-22T04:07:12;10.52;;;6.10;;
45730;SDS011;31440;48.584;13.460;2023-03-22T04:10:16;9.15;;;5.80;;
45730;SDS011;31440;48.584;13.460;2023-03-22T04:13:21;9.82;;;6.20;;
45730;SDS011;31440;48.584;13.460;2023-03-22T04:16:30;9.27;;;6.00;;
45730;SDS011;31440;48.584;13.460;2023-03-22T04:19:34;10.55;;;6.05;;
45730;SDS011;31440;48.584;13.460;2023-03-22T04:22:39;9.55;;;6.70;;
45730;SDS011;31440;48.584;13.460;2023-03-22T04:25:45;8.95;;;6.60;;
45730;SDS011;31440;48.584;13.460;2023-03-22T04:29:00;9.48;;;6.30;;
45730;SDS011;31440;48.584;13.460;2023-03-22T04:32:09;12.15;;;6.72;;
45730;SDS011;31440;48.584;13.460;2023-03-22T04:35:17;9.82;;;6.03;;
45730;SDS011;31440;48.584;13.460;2023-03-22T04:38:22;8.77;;;6.32;;
45730;SDS011;31440;48.584;13.460;2023-03-22T04:41:30;9.88;;;6.95;;
45730;SDS011;31440;48.584;13.460;2023-03-22T04:44:36;8.95;;;6.68;;
45730;SDS011;31440;48.584;13.460;2023-03-22T04:47:41;12.07;;;7.10;;
45730;SDS011;31440;48.584;13.460;2023-03-22T04:50:47;10.10;;;6.57;;
45730;SDS011;31440;48.584;13.460;2023-03-22T04:53:53;9.52;;;6.05;;
45730;SDS011;31440;48.584;13.460;2023-03-22T04:56:57;10.50;;;6.50;;
45730;SDS011;31440;48.584;13.460;2023-03-22T05:00:04;9.88;;;6.70;;
45730;SDS011;31440;48.584;13.460;2023-03-22T05:03:12;9.80;;;7.03;;
45730;SDS011;31440;48.584;13.460;2023-03-22T05:06:20;11.00;;;7.25;;
45730;SDS011;31440;48.584;13.460;2023-03-22T05:09:33;7.70;;;5.45;;
45730;SDS011;31440;48.584;13.460;2023-03-22T05:12:38;11.90;;;6.90;;
45730;SDS011;31440;48.584;13.460;2023-03-22T05:16:06;12.88;;;6.38;;
45730;SDS011;31440;48.584;13.460;2023-03-22T05:19:21;9.40;;;6.97;;
45730;SDS011;31440;48.584;13.460;2023-03-22T05:22:28;8.43;;;6.70;;
45730;SDS011;31440;48.584;13.460;2023-03-22T05:25:35;10.20;;;6.00;;
45730;SDS011;31440;48.584;13.460;2023-03-22T05:28:41;9.95;;;6.43;;
45730;SDS011;31440;48.584;13.460;2023-03-22T05:31:55;10.23;;;6.35;;
45730;SDS011;31440;48.584;13.460;2023-03-22T05:35:00;11.38;;;7.47;;
45730;SDS011;31440;48.584;13.460;2023-03-22T05:38:13;8.55;;;6.32;;
45730;SDS011;31440;48.584;13.460;2023-03-22T05:41:22;9.93;;;6.75;;
45730;SDS011;31440;48.584;13.460;2023-03-22T05:44:27;9.73;;;6.50;;
45730;SDS011;31440;48.584;13.460;2023-03-22T05:47:42;12.63;;;6.45;;
45730;SDS011;31440;48.584;13.460;2023-03-22T05:50:51;10.93;;;6.55;;
45730;SDS011;31440;48.584;13.460;2023-03-22T05:53:55;10.25;;;6.20;;
45730;SDS011;31440;48.584;13.460;2023-03-22T05:57:06;8.85;;;6.68;;
45730;SDS011;31440;48.584;13.460;2023-03-22T06:00:11;9.55;;;6.30;;
45730;SDS011;31440;48.584;13.460;2023-03-22T06:03:34;11.40;;;6.30;;
45730;SDS011;31440;48.584;13.460;2023-03-22T06:06:47;10.35;;;6.47;;
45730;SDS011;31440;48.584;13.460;2023-03-22T06:10:09;12.93;;;7.20;;
45730;SDS011;31440;48.584;13.460;2023-03-22T06:13:19;10.90;;;6.28;;
45730;SDS011;31440;48.584;13.460;2023-03-22T06:16:25;8.27;;;6.40;;
45730;SDS011;31440;48.584;13.460;2023-03-22T06:19:30;10.15;;;5.50;;
45730;SDS011;31440;48.584;13.460;2023-03-22T06:22:37;10.15;;;5.65;;
45730;SDS011;31440;48.584;13.460;2023-03-22T06:25:43;11.13;;;7.03;;
45730;SDS011;31440;48.584;13.460;2023-03-22T06:28:48;8.23;;;5.88;;
45730;SDS011;31440;48.584;13.460;2023-03-22T06:31:52;12.30;;;7.18;;
45730;SDS011;31440;48.584;13.460;2023-03-22T06:34:57;9.43;;;6.32;;
45730;SDS011;31440;48.584;13.460;2023-03-22T06:38:02;11.25;;;7.28;;
45730;SDS011;31440;48.584;13.460;2023-03-22T06:41:06;7.70;;;5.75;;
45730;SDS011;31440;48.584;13.460;2023-03-22T06:44:11;11.55;;;6.22;;
45730;SDS011;31440;48.584;13.460;2023-03-22T06:47:36;8.07;;;6.53;;
45730;SDS011;31440;48.584;13.460;2023-03-22T06:50:50;8.80;;;7.03;;
45730;SDS011;31440;48.584;13.460;2023-03-22T06:54:01;7.80;;;6.28;;
45730;SDS011;31440;48.584;13.460;2023-03-22T06:57:06;8.48;;;6.18;;
45730;SDS011;31440;48.584;13.460;2023-03-22T07:00:13;7.93;;;5.95;;
45730;SDS011;31440;48.584;13.460;2023-03-22T07:03:18;9.45;;;6.78;;
45730;SDS011;31440;48.584;13.460;2023-03-22T07:06:28;9.07;;;6.55;;
45730;SDS011;31440;48.584;13.460;2023-03-22T07:09:35;12.52;;;7.95;;
45730;SDS011;31440;48.584;13.460;2023-03-22T07:12:40;8.82;;;5.97;;
45730;SDS011;31440;48.584;13.460;2023-03-22T07:15:49;8.73;;;5.72;;
45730;SDS011;31440;48.584;13.460;2023-03-22T07:19:19;12.20;;;6.07;;
45730;SDS011;31440;48.584;13.460;2023-03-22T07:22:24;11.35;;;6.30;;
45730;SDS011;31440;48.584;13.460;2023-03-22T07:25:30;10.10;;;6.50;;
45730;SDS011;31440;48.584;13.460;2023-03-22T07:28:50;11.27;;;6.90;;
45730;SDS011;31440;48.584;13.460;2023-03-22T07:31:57;11.18;;;6.38;;
45730;SDS011;31440;48.584;13.460;2023-03-22T07:35:07;10.50;;;6.35;;
45730;SDS011;31440;48.584;13.460;2023-03-22T07:38:12;10.23;;;6.68;;
45730;SDS011;31440;48.584;13.460;2023-03-22T07:41:17;9.68;;;6.18;;
45730;SDS011;31440;48.584;13.460;2023-03-22T07:44:32;11.77;;;6.60;;
45730;SDS011;31440;48.584;13.460;2023-03-22T07:47:52;7.28;;;5.90;;
45730;SDS011;31440;48.584;13.460;2023-03-22T07:51:25;10.07;;;7.47;;
45730;SDS011;31440;48.584;13.460;2023-03-22T07:54:30;10.70;;;7.35;;
45730;SDS011;31440;48.584;13.460;2023-03-22T07:57:39;14.32;;;6.13;;
45730;SDS011;31440;48.584;13.460;2023-03-22T08:00:45;8.77;;;6.25;;
45730;SDS011;31440;48.584;13.460;2023-03-22T08:04:12;8.65;;;6.10;;
45730;SDS011;31440;48.584;13.460;2023-03-22T08:07:24;9.27;;;6.30;;
45730;SDS011;31440;48.584;13.460;2023-03-22T08:10:29;9.00;;;6.30;;
45730;SDS011;31440;48.584;13.460;2023-03-22T08:13:37;9.38;;;6.55;;
45730;SDS011;31440;48.584;13.460;2023-03-22T08:16:45;9.32;;;5.75;;
45730;SDS011;31440;48.584;13.460;2023-03-22T08:19:50;14.48;;;6.72;;
45730;SDS011;31440;48.584;13.460;2023-03-22T08:23:03;7.38;;;6.05;;
45730;SDS011;31440;48.584;13.460;2023-03-22T08:26:26;10.18;;;5.60;;
45730;SDS011;31440;48.584;13.460;2023-03-22T08:29:33;9.48;;;6.40;;
45730;SDS011;31440;48.584;13.460;2023-03-22T08:32:39;9.40;;;7.50;;
45730;SDS011;31440;48.584;13.460;2023-03-22T08:35:44;9.68;;;6.57;;
45730;SDS011;31440;48.584;13.460;2023-03-22T08:38:50;10.70;;;7.13;;
45730;SDS011;31440;48.584;13.460;2023-03-22T08:41:59;7.60;;;5.40;;
45730;SDS011;31440;48.584;13.460;2023-03-22T08:45:05;10.45;;;6.90;;
45730;SDS011;31440;48.584;13.460;2023-03-22T08:48:13;13.00;;;6.82;;
45730;SDS011;31440;48.584;13.460;2023-03-22T08:51:35;8.23;;;5.88;;
45730;SDS011;31440;48.584;13.460;2023-03-22T08:55:00;12.57;;;6.82;;
45730;SDS011;31440;48.584;13.460;2023-03-22T08:58:27;6.68;;;5.60;;
45730;SDS011;31440;48.584;13.460;2023-03-22T09:01:50;8.23;;;5.75;;
45730;SDS011;31440;48.584;13.460;2023-03-22T09:04:55;7.18;;;6.28;;
45730;SDS011;31440;48.584;13.460;2023-03-22T09:08:00;7.45;;;6.07;;
45730;SDS011;31440;48.584;13.460;2023-03-22T09:11:18;9.70;;;6.82;;
45730;SDS011;31440;48.584;13.460;2023-03-22T09:14:23;9.88;;;6.80;;
45730;SDS011;31440;48.584;13.460;2023-03-22T09:17:29;9.82;;;6.35;;
45730;SDS011;31440;48.584;13.460;2023-03-22T09:20:34;8.25;;;6.22;;
45730;SDS011;31440;48.584;13.460;2023-03-22T09:23:40;11.43;;;6.07;;
45730;SDS011;31440;48.584;13.460;2023-03-22T09:26:47;7.22;;;6.05;;
45730;SDS011;31440;48.584;13.460;2023-03-22T09:29:54;15.30;;;6.25;;
45730;SDS011;31440;48.584;13.460;2023-03-22T09:33:00;7.80;;;6.07;;
45730;SDS011;31440;48.584;13.460;2023-03-22T09:36:04;6.15;;;5.43;;
45730;SDS011;31440;48.584;13.460;2023-03-22T09:39:10;9.88;;;6.38;;
45730;SDS011;31440;48.584;13.460;2023-03-22T09:42:24;9.63;;;5.80;;
45730;SDS011;31440;48.584;13.460;2023-03-22T09:45:38;8.15;;;5.80;;
45730;SDS011;31440;48.584;13.460;2023-03-22T09:48:46;6.90;;;5.93;;
45730;SDS011;31440;48.584;13.460;2023-03-22T09:51:52;8.52;;;5.97;;
45730;SDS011;31440;48.584;13.460;2023-03-22T09:54:58;9.73;;;5.63;;
45730;SDS011;31440;48.584;13.460;2023-03-22T09:58:07;8.38;;;5.28;;
45730;SDS011;31440;48.584;13.460;2023-03-22T10:01:39;6.90;;;5.28;;
45730;SDS011;31440;48.584;13.460;2023-03-22T10:05:26;5.90;;;5.00;;
45730;SDS011;31440;48.584;13.460;2023-03-22T10:12:07;9.82;;;5.72;;
45730;SDS011;31440;48.584;13.460;2023-03-22T10:15:28;13.13;;;6.90;;
45730;SDS011;31440;48.584;13.460;2023-03-22T10:18:37;7.55;;;6.22;;
45730;SDS011;31440;48.584;13.460;2023-03-22T10:21:46;7.22;;;5.40;;
45730;SDS011;31440;48.584;13.460;2023-03-22T10:24:55;8.05;;;5.43;;
45730;SDS011;31440;48.584;13.460;2023-03-22T10:28:01;12.60;;;6.13;;
45730;SDS011;31440;48.584;13.460;2023-03-22T10:31:17;7.75;;;5.90;;
45730;SDS011;31440;48.584;13.460;2023-03-22T10:34:27;8.85;;;5.50;;
45730;SDS011;31440;48.584;13.460;2023-03-22T10:37:34;8.77;;;5.90;;
45730;SDS011;31440;48.584;13.460;2023-03-22T10:40:40;6.40;;;5.43;;
45730;SDS011;31440;48.584;13.460;2023-03-22T10:43:47;14.13;;;5.68;;
45730;SDS011;31440;48.584;13.460;2023-03-22T10:46:56;12.32;;;6.13;;
45730;SDS011;31440;48.584;13.460;2023-03-22T10:50:32;10.90;;;6.22;;
45730;SDS011;31440;48.584;13.460;2023-03-22T10:53:44;6.25;;;5.45;;
45730;SDS011;31440;48.584;13.460;2023-03-22T10:56:51;5.93;;;4.47;;
45730;SDS011;31440;48.584;13.460;2023-03-22T10:59:55;5.55;;;4.82;;
45730;SDS011;31440;48.584;13.460;2023-03-22T11:03:01;8.65;;;5.18;;
45730;SDS011;31440;48.584;13.460;2023-03-22T11:06:12;5.97;;;5.13;;
45730;SDS011;31440;48.584;13.460;2023-03-22T11:09:22;7.45;;;4.97;;
45730;SDS011;31440;48.584;13.460;2023-03-22T11:12:27;8.40;;;5.18;;
45730;SDS011;31440;48.584;13.460;2023-03-22T11:15:33;5.88;;;4.65;;
45730;SDS011;31440;48.584;13.460;2023-03-22T11:18:40;10.40;;;5.00;;
45730;SDS011;31440;48.584;13.460;2023-03-22T11:21:44;8.80;;;5.22;;
45730;SDS011;31440;48.584;13.460;2023-03-22T11:24:49;5.03;;;4.53;;
45730;SDS011;31440;48.584;13.460;2023-03-22T11:27:56;7.78;;;4.55;;
45730;SDS011;31440;48.584;13.460;2023-03-22T11:31:26;5.13;;;4.18;;
45730;SDS011;31440;48.584;13.460;2023-03-22T11:34:31;5.47;;;4.45;;
45730;SDS011;31440;48.584;13.460;2023-03-22T11:37:45;5.40;;;4.38;;
45730;SDS011;31440;48.584;13.460;2023-03-22T11:40:59;7.57;;;4.13;;
45730;SDS011;31440;48.584;13.460;2023-03-22T11:44:06;13.25;;;4.18;;
45730;SDS011;31440;48.584;13.460;2023-03-22T11:47:15;16.30;;;3.95;;
45730;SDS011;31440;48.584;13.460;2023-03-22T11:50:25;3.97;;;3.58;;
45730;SDS011;31440;48.584;13.460;2023-03-22T11:53:32;10.80;;;4.00;;
45730;SDS011;31440;48.584;13.460;2023-03-22T11:56:41;5.85;;;3.60;;
45730;SDS011;31440;48.584;13.460;2023-03-22T12:03:15;4.85;;;3.70;;
45730;SDS011;31440;48.584;13.460;2023-03-22T12:06:24;5.13;;;3.60;;
45730;SDS011;31440;48.584;13.460;2023-03-22T12:09:38;6.85;;;3.85;;
45730;SDS011;31440;48.584;13.460;2023-03-22T12:12:51;14.38;;;4.95;;
45730;SDS011;31440;48.584;13.460;2023-03-22T12:16:00;7.25;;;4.40;;
45730;SDS011;31440;48.584;13.460;2023-03-22T12:22:40;4.68;;;3.97;;
45730;SDS011;31440;48.584;13.460;2023-03-22T12:28:59;5.72;;;4.20;;
45730;SDS011;31440;48.584;13.460;2023-03-22T12:32:11;5.15;;;4.65;;
45730;SDS011;31440;48.584;13.460;2023-03-22T12:35:26;7.47;;;4.22;;
45730;SDS011;31440;48.584;13.460;2023-03-22T12:38:38;6.78;;;4.30;;
45730;SDS011;31440;48.584;13.460;2023-03-22T12:41:49;9.68;;;3.95;;
45730;SDS011;31440;48.584;13.460;2023-03-22T12:44:58;6.57;;;3.92;;
45730;SDS011;31440;48.584;13.460;2023-03-22T12:48:15;4.03;;;3.47;;
45730;SDS011;31440;48.584;13.460;2023-03-22T12:51:24;4.18;;;3.70;;
45730;SDS011;31440;48.584;13.460;2023-03-22T12:54:28;5.47;;;3.60;;
45730;SDS011;31440;48.584;13.460;2023-03-22T12:57:34;4.05;;;3.65;;
45730;SDS011;31440;48.584;13.460;2023-03-22T13:04:48;4.38;;;3.38;;
45730;SDS011;31440;48.584;13.460;2023-03-22T13:07:49;4.25;;;3.65;;
45730;SDS011;31440;48.584;13.460;2023-03-22T13:14:00;6.00;;;4.22;;
45730;SDS011;31440;48.584;13.460;2023-03-22T13:17:05;4.22;;;3.25;;
45730;SDS011;31440;48.584;13.460;2023-03-22T13:23:24;4.63;;;3.70;;
45730;SDS011;31440;48.584;13.460;2023-03-22T13:26:46;4.85;;;3.40;;
45730;SDS011;31440;48.584;13.460;2023-03-22T13:29:53;5.72;;;3.83;;
45730;SDS011;31440;48.584;13.460;2023-03-22T13:33:11;5.07;;;2.95;;
45730;SDS011;31440;48.584;13.460;2023-03-22T13:36:22;6.45;;;3.47;;
45730;SDS011;31440;48.584;13.460;2023-03-22T13:39:32;5.05;;;2.83;;
45730;SDS011;31440;48.584;13.460;2023-03-22T13:42:39;3.38;;;2.65;;
45730;SDS011;31440;48.584;13.460;2023-03-22T13:49:29;8.80;;;3.45;;
45730;SDS011;31440;48.584;13.460;2023-03-22T13:52:50;3.90;;;3.10;;
45730;SDS011;31440;48.584;13.460;2023-03-22T13:56:05;4.25;;;3.25;;
45730;SDS011;31440;48.584;13.460;2023-03-22T14:02:32;2.25;;;2.05;;
45730;SDS011;31440;48.584;13.460;2023-03-22T14:05:39;3.90;;;3.15;;
45730;SDS011;31440;48.584;13.460;2023-03-22T14:08:48;7.15;;;3.10;;
45730;SDS011;31440;48.584;13.460;2023-03-22T14:12:03;3.80;;;3.28;;
45730;SDS011;31440;48.584;13.460;2023-03-22T14:15:14;2.97;;;2.42;;
45730;SDS011;31440;48.584;13.460;2023-03-22T14:18:23;5.93;;;2.47;;
45730;SDS011;31440;48.584;13.460;2023-03-22T14:21:41;2.72;;;2.33;;
45730;SDS011;31440;48.584;13.460;2023-03-22T14:24:47;4.40;;;2.83;;
45730;SDS011;31440;48.584;13.460;2023-03-22T14:27:52;4.32;;;2.60;;
45730;SDS011;31440;48.584;13.460;2023-03-22T14:30:55;3.13;;;2.83;;
45730;SDS011;31440;48.584;13.460;2023-03-22T14:34:02;3.95;;;2.53;;
45730;SDS011;31440;48.584;13.460;2023-03-22T14:37:11;5.15;;;2.92;;
45730;SDS011;31440;48.584;13.460;2023-03-22T14:40:27;3.95;;;2.53;;
45730;SDS011;31440;48.584;13.460;2023-03-22T14:43:40;2.70;;;2.30;;
45730;SDS011;31440;48.584;13.460;2023-03-22T14:46:45;10.13;;;2.80;;
45730;SDS011;31440;48.584;13.460;2023-03-22T14:49:50;3.50;;;2.30;;
45730;SDS011;31440;48.584;13.460;2023-03-22T14:52:56;2.58;;;2.38;;
45730;SDS011;31440;48.584;13.460;2023-03-22T14:56:06;8.32;;;2.63;;
45730;SDS011;31440;48.584;13.460;2023-03-22T14:59:18;2.38;;;2.17;;
45730;SDS011;31440;48.584;13.460;2023-03-22T15:02:32;3.05;;;2.40;;
45730;SDS011;31440;48.584;13.460;2023-03-22T15:05:38;4.45;;;2.53;;
45730;SDS011;31440;48.584;13.460;2023-03-22T15:08:45;2.95;;;2.58;;
45730;SDS011;31440;48.584;13.460;2023-03-22T15:11:52;3.47;;;3.17;;
45730;SDS011;31440;48.584;13.460;2023-03-22T15:15:07;3.30;;;2.78;;
45730;SDS011;31440;48.584;13.460;2023-03-22T15:18:12;3.38;;;2.50;;
45730;SDS011;31440;48.584;13.460;2023-03-22T15:21:18;3.65;;;2.17;;
45730;SDS011;31440;48.584;13.460;2023-03-22T15:24:26;2.90;;;2.15;;
45730;SDS011;31440;48.584;13.460;2023-03-22T15:27:32;3.95;;;2.25;;
45730;SDS011;31440;48.584;13.460;2023-03-22T15:30:36;2.47;;;2.10;;
45730;SDS011;31440;48.584;13.460;2023-03-22T15:33:45;3.28;;;2.20;;
45730;SDS011;31440;48.584;13.460;2023-03-22T15:36:49;4.22;;;2.53;;
45730;SDS011;31440;48.584;13.460;2023-03-22T15:39:54;3.63;;;2.50;;
45730;SDS011;31440;48.584;13.460;2023-03-22T15:43:19;8.65;;;2.53;;
45730;SDS011;31440;48.584;13.460;2023-03-22T15:46:23;6.20;;;2.20;;
45730;SDS011;31440;48.584;13.460;2023-03-22T15:49:37;2.17;;;1.98;;
45730;SDS011;31440;48.584;13.460;2023-03-22T15:52:47;9.85;;;2.88;;
45730;SDS011;31440;48.584;13.460;2023-03-22T15:56:21;3.05;;;2.25;;
45730;SDS011;31440;48.584;13.460;2023-03-22T15:59:28;6.13;;;2.58;;
45730;SDS011;31440;48.584;13.460;2023-03-22T16:02:32;4.97;;;2.60;;
45730;SDS011;31440;48.584;13.460;2023-03-22T16:05:37;8.65;;;2.60;;
45730;SDS011;31440;48.584;13.460;2023-03-22T16:08:42;5.75;;;2.33;;
45730;SDS011;31440;48.584;13.460;2023-03-22T16:11:46;3.95;;;2.65;;
45730;SDS011;31440;48.584;13.460;2023-03-22T16:14:50;2.53;;;2.33;;
45730;SDS011;31440;48.584;13.460;2023-03-22T16:17:55;2.75;;;1.83;;
45730;SDS011;31440;48.584;13.460;2023-03-22T16:20:59;5.43;;;2.10;;
45730;SDS011;31440;48.584;13.460;2023-03-22T16:24:03;5.10;;;2.38;;
45730;SDS011;31440;48.584;13.460;2023-03-22T16:27:09;4.55;;;2.60;;
45730;SDS011;31440;48.584;13.460;2023-03-22T16:30:18;9.43;;;3.03;;
45730;SDS011;31440;48.584;13.460;2023-03-22T16:33:21;8.60;;;2.63;;
45730;SDS011;31440;48.584;13.460;2023-03-22T16:36:25;6.90;;;2.63;;
45730;SDS011;31440;48.584;13.460;2023-03-22T16:39:29;4.60;;;2.72;;
45730;SDS011;31440;48.584;13.460;2023-03-22T16:42:33;2.65;;;2.22;;
45730;SDS011;31440;48.584;13.460;2023-03-22T16:45:37;8.00;;;2.60;;
45730;SDS011;31440;48.584;13.460;2023-03-22T16:48:40;9.60;;;2.92;;
45730;SDS011;31440;48.584;13.460;2023-03-22T16:51:44;2.33;;;1.85;;
45730;SDS011;31440;48.584;13.460;2023-03-22T16:55:17;5.72;;;2.42;;
45730;SDS011;31440;48.584;13.460;2023-03-22T16:58:23;2.80;;;2.42;;
45730;SDS011;31440;48.584;13.460;2023-03-22T17:01:26;3.55;;;2.15;;
45730;SDS011;31440;48.584;13.460;2023-03-22T17:04:30;3.97;;;2.60;;
45730;SDS011;31440;48.584;13.460;2023-03-22T17:07:33;3.22;;;2.38;;
45730;SDS011;31440;48.584;13.460;2023-03-22T17:10:37;4.57;;;2.45;;
45730;SDS011;31440;48.584;13.460;2023-03-22T17:13:41;3.75;;;2.58;;
45730;SDS011;31440;48.584;13.460;2023-03-22T17:16:44;4.03;;;2.05;;
45730;SDS011;31440;48.584;13.460;2023-03-22T17:19:48;2.50;;;1.95;;
45730;SDS011;31440;48.584;13.460;2023-03-22T17:22:52;4.82;;;2.33;;
45730;SDS011;31440;48.584;13.460;2023-03-22T17:25:57;5.32;;;2.05;;
45730;SDS011;31440;48.584;13.460;2023-03-22T17:29:00;5.75;;;2.13;;
45730;SDS011;31440;48.584;13.460;2023-03-22T17:32:05;2.33;;;2.00;;
45730;SDS011;31440;48.584;13.460;2023-03-22T17:35:19;20.00;;;2.63;;
45730;SDS011;31440;48.584;13.460;2023-03-22T17:38:25;25.45;;;3.92;;
45730;SDS011;31440;48.584;13.460;2023-03-22T17:41:29;4.10;;;2.13;;
45730;SDS011;31440;48.584;13.460;2023-03-22T17:44:33;5.47;;;2.88;;
45730;SDS011;31440;48.584;13.460;2023-03-22T17:47:36;7.75;;;2.63;;
45730;SDS011;31440;48.584;13.460;2023-03-22T17:50:41;24.10;;;4.32;;
45730;SDS011;31440;48.584;13.460;2023-03-22T17:53:44;12.10;;;3.55;;
45730;SDS011;31440;48.584;13.460;2023-03-22T17:56:48;10.85;;;3.20;;
45730;SDS011;31440;48.584;13.460;2023-03-22T17:59:52;2.85;;;2.00;;
45730;SDS011;31440;48.584;13.460;2023-03-22T18:02:56;2.30;;;1.77;;
45730;SDS011;31440;48.584;13.460;2023-03-22T18:05:59;5.63;;;1.50;;
45730;SDS011;31440;48.584;13.460;2023-03-22T18:09:03;2.58;;;1.73;;
45730;SDS011;31440;48.584;13.460;2023-03-22T18:12:07;3.60;;;1.95;;
45730;SDS011;31440;48.584;13.460;2023-03-22T18:15:11;1.52;;;1.42;;
45730;SDS011;31440;48.584;13.460;2023-03-22T18:18:17;4.05;;;1.90;;
45730;SDS011;31440;48.584;13.460;2023-03-22T18:21:20;16.23;;;2.88;;
45730;SDS011;31440;48.584;13.460;2023-03-22T18:24:24;3.63;;;2.10;;
45730;SDS011;31440;48.584;13.460;2023-03-22T18:27:29;9.77;;;3.08;;
45730;SDS011;31440;48.584;13.460;2023-03-22T18:30:33;8.23;;;3.05;;
45730;SDS011;31440;48.584;13.460;2023-03-22T18:33:37;8.02;;;2.83;;
45730;SDS011;31440;48.584;13.460;2023-03-22T18:36:42;9.10;;;3.22;;
45730;SDS011;31440;48.584;13.460;2023-03-22T18:39:46;7.38;;;2.45;;
45730;SDS011;31440;48.584;13.460;2023-03-22T18:42:50;5.57;;;2.75;;
45730;SDS011;31440;48.584;13.460;2023-03-22T18:45:54;9.07;;;3.65;;
45730;SDS011;31440;48.584;13.460;2023-03-22T18:48:57;5.25;;;3.92;;
45730;SDS011;31440;48.584;13.460;2023-03-22T18:52:01;8.25;;;4.38;;
45730;SDS011;31440;48.584;13.460;2023-03-22T18:55:05;5.60;;;3.45;;
45730;SDS011;31440;48.584;13.460;2023-03-22T18:58:11;8.70;;;4.05;;
45730;SDS011;31440;48.584;13.460;2023-03-22T19:01:15;4.47;;;3.50;;
45730;SDS011;31440;48.584;13.460;2023-03-22T19:04:18;8.88;;;3.95;;
45730;SDS011;31440;48.584;13.460;2023-03-22T19:07:22;7.13;;;3.55;;
45730;SDS011;31440;48.584;13.460;2023-03-22T19:10:25;5.93;;;3.22;;
45730;SDS011;31440;48.584;13.460;2023-03-22T19:13:29;4.25;;;3.08;;
45730;SDS011;31440;48.584;13.460;2023-03-22T19:16:33;4.88;;;3.45;;
45730;SDS011;31440;48.584;13.460;2023-03-22T19:19:36;4.68;;;3.08;;
45730;SDS011;31440;48.584;13.460;2023-03-22T19:22:40;5.05;;;3.17;;
45730;SDS011;31440;48.584;13.460;2023-03-22T19:25:44;4.78;;;3.35;;
45730;SDS011;31440;48.584;13.460;2023-03-22T19:28:48;3.75;;;2.78;;
45730;SDS011;31440;48.584;13.460;2023-03-22T19:31:56;4.95;;;3.05;;